EAG5519 SBTE-SBFZ
Flight info
| Callsign | EAG5519 |
|---|---|
| Flight time | 0h 46m |
| Altitude | 35000 |
| Route | MUMAG DCT DOTKU |
| Aircraft | A20N/M-SDE2E3FGHIRWXY/LB1 |
Departure
| Time | 2026-05-04 04:13 |
|---|---|
| Airport | Senador Petrônio Portela Airport (SBTE) |
Arrival
| Time | 2026-05-04 04:59 |
|---|---|
| Airport | Pinto Martins International Airport (SBFZ) |
| Time | Latitude | Longitude | Altitude | Speed | Heading |
|---|---|---|---|---|---|
| 2026-05-04 03:56 | -5.06401 | -42.82169 | 211 ft | 0 kts | 88° |
| 2026-05-04 04:06 | -5.06401 | -42.82175 | 213 ft | 1 kts | 88° |
| 2026-05-04 04:06 | -5.06402 | -42.82183 | 212 ft | 1 kts | 96° |
| 2026-05-04 04:07 | -5.06400 | -42.82191 | 211 ft | 1 kts | 112° |
| 2026-05-04 04:07 | -5.06397 | -42.82198 | 211 ft | 1 kts | 136° |
| 2026-05-04 04:07 | -5.06391 | -42.82203 | 214 ft | 1 kts | 160° |
| 2026-05-04 04:07 | -5.06384 | -42.82206 | 212 ft | 1 kts | 184° |
| 2026-05-04 04:08 | -5.06382 | -42.82206 | 212 ft | 0 kts | 189° |
| 2026-05-04 04:09 | -5.06386 | -42.82205 | 211 ft | 1 kts | 179° |
| 2026-05-04 04:09 | -5.06404 | -42.82204 | 213 ft | 4 kts | 176° |
| 2026-05-04 04:09 | -5.06447 | -42.82202 | 211 ft | 8 kts | 176° |
| 2026-05-04 04:10 | -5.06510 | -42.82198 | 212 ft | 11 kts | 176° |
| 2026-05-04 04:10 | -5.06579 | -42.82230 | 214 ft | 12 kts | 222° |
| 2026-05-04 04:10 | -5.06653 | -42.82290 | 214 ft | 15 kts | 206° |
| 2026-05-04 04:10 | -5.06718 | -42.82303 | 215 ft | 10 kts | 187° |
| 2026-05-04 04:11 | -5.06795 | -42.82289 | 218 ft | 13 kts | 164° |
| 2026-05-04 04:11 | -5.06896 | -42.82282 | 216 ft | 15 kts | 189° |
| 2026-05-04 04:11 | -5.06957 | -42.82303 | 216 ft | 5 kts | 189° |
| 2026-05-04 04:11 | -5.06989 | -42.82285 | 220 ft | 6 kts | 112° |
| 2026-05-04 04:12 | -5.06971 | -42.82270 | 218 ft | 4 kts | 342° |
| 2026-05-04 04:12 | -5.06900 | -42.82279 | 216 ft | 30 kts | 353° |
| 2026-05-04 04:12 | -5.06390 | -42.82332 | 218 ft | 114 kts | 354° |
| 2026-05-04 04:12 | -5.05377 | -42.82438 | 275 ft | 170 kts | 355° |
| 2026-05-04 04:13 | -5.04210 | -42.82534 | 1043 ft | 164 kts | 355° |
| 2026-05-04 04:13 | -5.03117 | -42.82645 | 1897 ft | 154 kts | 355° |
| 2026-05-04 04:13 | -5.01960 | -42.82772 | 2327 ft | 186 kts | 357° |
| 2026-05-04 04:13 | -5.00539 | -42.82918 | 2800 ft | 222 kts | 358° |
| 2026-05-04 04:14 | -4.98916 | -42.83006 | 3542 ft | 244 kts | 10° |
| 2026-05-04 04:14 | -4.97286 | -42.82412 | 4299 ft | 259 kts | 38° |
| 2026-05-04 04:14 | -4.96098 | -42.81060 | 5195 ft | 262 kts | 66° |
| 2026-05-04 04:14 | -4.95696 | -42.79311 | 6254 ft | 259 kts | 93° |
| 2026-05-04 04:15 | -4.96141 | -42.77564 | 7205 ft | 264 kts | 115° |
| 2026-05-04 04:15 | -4.96966 | -42.75888 | 8133 ft | 270 kts | 112° |
| 2026-05-04 04:15 | -4.97524 | -42.74078 | 9065 ft | 277 kts | 99° |
| 2026-05-04 04:15 | -4.97670 | -42.72133 | 10018 ft | 282 kts | 89° |
| 2026-05-04 04:16 | -4.97513 | -42.70115 | 10606 ft | 302 kts | 83° |
| 2026-05-04 04:16 | -4.97159 | -42.67952 | 10986 ft | 327 kts | 79° |
| 2026-05-04 04:16 | -4.96702 | -42.65658 | 11584 ft | 340 kts | 78° |
| 2026-05-04 04:16 | -4.96221 | -42.63321 | 12490 ft | 345 kts | 78° |
| 2026-05-04 04:17 | -4.95738 | -42.60942 | 13345 ft | 351 kts | 79° |
| 2026-05-04 04:17 | -4.95256 | -42.58520 | 14157 ft | 357 kts | 79° |
| 2026-05-04 04:17 | -4.94774 | -42.56070 | 15007 ft | 359 kts | 79° |
| 2026-05-04 04:17 | -4.94293 | -42.53601 | 15828 ft | 363 kts | 79° |
| 2026-05-04 04:18 | -4.93808 | -42.51109 | 16637 ft | 366 kts | 79° |
| 2026-05-04 04:18 | -4.93317 | -42.48588 | 17423 ft | 370 kts | 79° |
| 2026-05-04 04:18 | -4.92989 | -42.46900 | 17945 ft | 373 kts | 79° |
| 2026-05-04 04:18 | -4.92490 | -42.44339 | 18646 ft | 377 kts | 79° |
| 2026-05-04 04:19 | -4.91985 | -42.41742 | 19288 ft | 381 kts | 79° |
| 2026-05-04 04:19 | -4.91474 | -42.39119 | 19912 ft | 386 kts | 79° |
| 2026-05-04 04:19 | -4.90955 | -42.36457 | 20549 ft | 390 kts | 79° |
| 2026-05-04 04:19 | -4.90433 | -42.33777 | 21173 ft | 394 kts | 79° |
| 2026-05-04 04:20 | -4.89903 | -42.31061 | 21766 ft | 398 kts | 79° |
| 2026-05-04 04:20 | -4.89369 | -42.28319 | 22342 ft | 402 kts | 79° |
| 2026-05-04 04:20 | -4.88829 | -42.25553 | 22897 ft | 406 kts | 79° |
| 2026-05-04 04:20 | -4.88284 | -42.22761 | 23433 ft | 410 kts | 79° |
| 2026-05-04 04:21 | -4.87735 | -42.19943 | 23873 ft | 414 kts | 79° |
| 2026-05-04 04:21 | -4.87190 | -42.17106 | 24278 ft | 418 kts | 81° |
| 2026-05-04 04:21 | -4.86734 | -42.14222 | 24696 ft | 421 kts | 82° |
| 2026-05-04 04:21 | -4.86319 | -42.11300 | 25088 ft | 425 kts | 83° |
| 2026-05-04 04:22 | -4.85905 | -42.08359 | 25448 ft | 428 kts | 83° |
| 2026-05-04 04:22 | -4.85479 | -42.05394 | 25775 ft | 431 kts | 82° |
| 2026-05-04 04:22 | -4.85040 | -42.02410 | 26098 ft | 434 kts | 82° |
| 2026-05-04 04:22 | -4.84593 | -41.99404 | 26417 ft | 437 kts | 82° |
| 2026-05-04 04:23 | -4.84140 | -41.96379 | 26745 ft | 440 kts | 82° |
| 2026-05-04 04:23 | -4.83683 | -41.93333 | 27059 ft | 443 kts | 82° |
| 2026-05-04 04:23 | -4.83223 | -41.90268 | 27371 ft | 446 kts | 82° |
| 2026-05-04 04:23 | -4.82760 | -41.87183 | 27667 ft | 449 kts | 82° |
| 2026-05-04 04:24 | -4.82294 | -41.84080 | 27957 ft | 452 kts | 83° |
| 2026-05-04 04:24 | -4.81824 | -41.80953 | 28242 ft | 455 kts | 83° |
| 2026-05-04 04:24 | -4.81351 | -41.77807 | 28536 ft | 457 kts | 83° |
| 2026-05-04 04:24 | -4.80878 | -41.74649 | 28890 ft | 458 kts | 82° |
| 2026-05-04 04:25 | -4.80402 | -41.71482 | 29162 ft | 461 kts | 82° |
| 2026-05-04 04:25 | -4.79923 | -41.68299 | 29422 ft | 463 kts | 82° |
| 2026-05-04 04:25 | -4.79441 | -41.65097 | 29694 ft | 466 kts | 83° |
| 2026-05-04 04:25 | -4.78957 | -41.61875 | 29966 ft | 468 kts | 83° |
| 2026-05-04 04:26 | -4.78470 | -41.58641 | 30219 ft | 470 kts | 82° |
| 2026-05-04 04:26 | -4.77982 | -41.55398 | 30488 ft | 472 kts | 82° |
| 2026-05-04 04:26 | -4.77492 | -41.52135 | 30713 ft | 474 kts | 82° |
| 2026-05-04 04:26 | -4.76998 | -41.48859 | 30997 ft | 476 kts | 82° |
| 2026-05-04 04:27 | -4.76505 | -41.45582 | 31315 ft | 475 kts | 82° |
| 2026-05-04 04:27 | -4.76012 | -41.42307 | 31705 ft | 474 kts | 82° |
| 2026-05-04 04:27 | -4.75521 | -41.39041 | 32071 ft | 473 kts | 81° |
| 2026-05-04 04:27 | -4.75031 | -41.35784 | 32437 ft | 472 kts | 81° |
| 2026-05-04 04:28 | -4.74541 | -41.32536 | 32818 ft | 470 kts | 82° |
| 2026-05-04 04:28 | -4.74053 | -41.29300 | 33163 ft | 470 kts | 82° |
| 2026-05-04 04:28 | -4.73566 | -41.26066 | 33503 ft | 469 kts | 81° |
| 2026-05-04 04:28 | -4.73079 | -41.22838 | 33838 ft | 468 kts | 81° |
| 2026-05-04 04:29 | -4.72592 | -41.19611 | 34134 ft | 467 kts | 81° |
| 2026-05-04 04:29 | -4.72107 | -41.16397 | 34446 ft | 466 kts | 81° |
| 2026-05-04 04:29 | -4.71622 | -41.13189 | 34731 ft | 465 kts | 81° |
| 2026-05-04 04:29 | -4.71138 | -41.09984 | 34937 ft | 466 kts | 81° |
| 2026-05-04 04:30 | -4.70161 | -41.03532 | 34985 ft | 477 kts | 81° |
| 2026-05-04 04:30 | -4.69156 | -40.96890 | 34984 ft | 485 kts | 81° |
| 2026-05-04 04:31 | -4.68137 | -40.90168 | 34995 ft | 490 kts | 81° |
| 2026-05-04 04:31 | -4.67110 | -40.83388 | 34982 ft | 493 kts | 81° |
| 2026-05-04 04:32 | -4.66080 | -40.76590 | 34982 ft | 494 kts | 81° |
| 2026-05-04 04:32 | -4.65047 | -40.69779 | 34982 ft | 495 kts | 81° |
| 2026-05-04 04:33 | -4.64012 | -40.62956 | 34980 ft | 495 kts | 81° |
| 2026-05-04 04:33 | -4.62976 | -40.56143 | 34973 ft | 495 kts | 81° |
| 2026-05-04 04:34 | -4.61939 | -40.49317 | 34974 ft | 495 kts | 81° |
| 2026-05-04 04:34 | -4.60899 | -40.42485 | 34972 ft | 496 kts | 81° |
| 2026-05-04 04:35 | -4.59859 | -40.35649 | 34971 ft | 497 kts | 81° |
| 2026-05-04 04:35 | -4.58814 | -40.28794 | 34972 ft | 497 kts | 81° |
| 2026-05-04 04:36 | -4.57770 | -40.21945 | 34973 ft | 498 kts | 81° |
| 2026-05-04 04:36 | -4.56723 | -40.15081 | 34978 ft | 499 kts | 81° |
| 2026-05-04 04:37 | -4.54624 | -40.01332 | 34976 ft | 499 kts | 80° |
| 2026-05-04 04:38 | -4.53576 | -39.94474 | 34877 ft | 493 kts | 80° |
| 2026-05-04 04:38 | -4.52548 | -39.87749 | 34795 ft | 485 kts | 80° |
| 2026-05-04 04:39 | -4.51529 | -39.81091 | 34498 ft | 485 kts | 80° |
| 2026-05-04 04:39 | -4.51015 | -39.77737 | 34196 ft | 488 kts | 80° |
| 2026-05-04 04:39 | -4.50499 | -39.74367 | 33953 ft | 489 kts | 80° |
| 2026-05-04 04:40 | -4.49982 | -39.70996 | 33708 ft | 490 kts | 80° |
| 2026-05-04 04:40 | -4.49466 | -39.67627 | 33495 ft | 488 kts | 81° |
| 2026-05-04 04:40 | -4.48958 | -39.64312 | 33211 ft | 475 kts | 81° |
| 2026-05-04 04:40 | -4.48461 | -39.61070 | 32882 ft | 464 kts | 81° |
| 2026-05-04 04:41 | -4.47976 | -39.57909 | 32505 ft | 455 kts | 81° |
| 2026-05-04 04:41 | -4.47496 | -39.54785 | 31900 ft | 452 kts | 81° |
| 2026-05-04 04:41 | -4.47017 | -39.51678 | 31221 ft | 452 kts | 81° |
| 2026-05-04 04:41 | -4.46538 | -39.48566 | 30544 ft | 451 kts | 82° |
| 2026-05-04 04:42 | -4.46058 | -39.45454 | 29784 ft | 452 kts | 82° |
| 2026-05-04 04:42 | -4.45578 | -39.42328 | 28840 ft | 455 kts | 82° |
| 2026-05-04 04:42 | -4.45096 | -39.39189 | 27907 ft | 458 kts | 82° |
| 2026-05-04 04:42 | -4.44610 | -39.36024 | 26931 ft | 461 kts | 82° |
| 2026-05-04 04:43 | -4.44122 | -39.32848 | 25998 ft | 463 kts | 82° |
| 2026-05-04 04:43 | -4.43631 | -39.29654 | 25072 ft | 464 kts | 82° |
| 2026-05-04 04:43 | -4.43138 | -39.26450 | 24086 ft | 466 kts | 82° |
| 2026-05-04 04:43 | -4.42644 | -39.23237 | 23036 ft | 468 kts | 81° |
| 2026-05-04 04:44 | -4.42147 | -39.20013 | 21902 ft | 468 kts | 81° |
| 2026-05-04 04:44 | -4.41683 | -39.17003 | 20882 ft | 468 kts | 81° |
| 2026-05-04 04:44 | -4.41182 | -39.13750 | 19885 ft | 465 kts | 81° |
| 2026-05-04 04:44 | -4.40671 | -39.10565 | 19020 ft | 459 kts | 78° |
| 2026-05-04 04:45 | -4.39710 | -39.07539 | 18217 ft | 454 kts | 66° |
| 2026-05-04 04:45 | -4.38151 | -39.04824 | 17321 ft | 448 kts | 54° |
| 2026-05-04 04:45 | -4.36072 | -39.02539 | 16464 ft | 442 kts | 42° |
| 2026-05-04 04:47 | -4.20371 | -38.94394 | 11538 ft | 410 kts | 30° |
| 2026-05-04 04:47 | -4.17888 | -38.93032 | 10922 ft | 400 kts | 30° |
| 2026-05-04 04:47 | -4.15511 | -38.91715 | 10720 ft | 381 kts | 31° |
| 2026-05-04 04:47 | -4.13247 | -38.90458 | 10543 ft | 363 kts | 31° |
| 2026-05-04 04:48 | -4.11066 | -38.89290 | 10385 ft | 348 kts | 27° |
| 2026-05-04 04:49 | -4.02701 | -38.86361 | 9844 ft | 287 kts | 21° |
| 2026-05-04 04:49 | -4.00867 | -38.85737 | 9693 ft | 268 kts | 23° |
| 2026-05-04 04:49 | -3.99239 | -38.84987 | 9531 ft | 248 kts | 33° |
| 2026-05-04 04:49 | -3.97855 | -38.84056 | 9339 ft | 233 kts | 39° |
| 2026-05-04 04:50 | -3.96559 | -38.83117 | 9084 ft | 227 kts | 38° |
| 2026-05-04 04:50 | -3.95283 | -38.82206 | 8802 ft | 223 kts | 38° |
| 2026-05-04 04:50 | -3.94067 | -38.81344 | 8762 ft | 204 kts | 38° |
| 2026-05-04 04:50 | -3.92928 | -38.80539 | 8431 ft | 199 kts | 38° |
| 2026-05-04 04:51 | -3.91797 | -38.79735 | 8013 ft | 200 kts | 38° |
| 2026-05-04 04:51 | -3.90663 | -38.78928 | 7618 ft | 200 kts | 38° |
| 2026-05-04 04:51 | -3.89532 | -38.78124 | 7229 ft | 199 kts | 39° |
| 2026-05-04 04:51 | -3.88404 | -38.77322 | 6851 ft | 199 kts | 38° |
| 2026-05-04 04:52 | -3.87278 | -38.76523 | 6495 ft | 198 kts | 39° |
| 2026-05-04 04:52 | -3.86160 | -38.75728 | 6124 ft | 197 kts | 39° |
| 2026-05-04 04:52 | -3.85043 | -38.74936 | 5750 ft | 196 kts | 39° |
| 2026-05-04 04:52 | -3.83929 | -38.74146 | 5377 ft | 196 kts | 39° |
| 2026-05-04 04:53 | -3.82814 | -38.73366 | 5002 ft | 196 kts | 35° |
| 2026-05-04 04:53 | -3.81568 | -38.72801 | 4705 ft | 196 kts | 20° |
| 2026-05-04 04:53 | -3.80266 | -38.72462 | 4342 ft | 193 kts | 18° |
| 2026-05-04 04:53 | -3.78972 | -38.72115 | 3947 ft | 192 kts | 18° |
| 2026-05-04 04:54 | -3.77690 | -38.71763 | 3571 ft | 189 kts | 18° |
| 2026-05-04 04:54 | -3.76421 | -38.71413 | 3171 ft | 189 kts | 18° |
| 2026-05-04 04:54 | -3.75185 | -38.71066 | 3013 ft | 179 kts | 21° |
| 2026-05-04 04:54 | -3.74209 | -38.70473 | 2914 ft | 152 kts | 51° |
| 2026-05-04 04:55 | -3.73722 | -38.69604 | 2860 ft | 145 kts | 77° |
| 2026-05-04 04:55 | -3.73640 | -38.68620 | 2766 ft | 140 kts | 96° |
| 2026-05-04 04:55 | -3.73800 | -38.67659 | 2628 ft | 141 kts | 104° |
| 2026-05-04 04:55 | -3.74042 | -38.66716 | 2469 ft | 140 kts | 105° |
| 2026-05-04 04:56 | -3.74294 | -38.65773 | 2306 ft | 140 kts | 105° |
| 2026-05-04 04:56 | -3.74541 | -38.64845 | 2123 ft | 134 kts | 104° |
| 2026-05-04 04:56 | -3.74783 | -38.63938 | 1962 ft | 135 kts | 105° |
| 2026-05-04 04:56 | -3.75019 | -38.63051 | 1796 ft | 131 kts | 103° |
| 2026-05-04 04:57 | -3.75257 | -38.62155 | 1620 ft | 135 kts | 105° |
| 2026-05-04 04:57 | -3.75497 | -38.61259 | 1442 ft | 131 kts | 104° |
| 2026-05-04 04:57 | -3.75731 | -38.60374 | 1271 ft | 131 kts | 105° |
| 2026-05-04 04:57 | -3.75972 | -38.59478 | 1100 ft | 133 kts | 104° |
| 2026-05-04 04:58 | -3.76212 | -38.58577 | 939 ft | 133 kts | 104° |
| 2026-05-04 04:58 | -3.76454 | -38.57686 | 687 ft | 128 kts | 103° |
| 2026-05-04 04:58 | -3.76698 | -38.56793 | 570 ft | 135 kts | 102° |
| 2026-05-04 04:58 | -3.76925 | -38.55895 | 383 ft | 134 kts | 102° |
| 2026-05-04 04:59 | -3.77170 | -38.55009 | 239 ft | 134 kts | 102° |
| 2026-05-04 04:59 | -3.77411 | -38.54096 | 103 ft | 135 kts | 102° |
| 2026-05-04 04:59 | -3.77553 | -38.53554 | 94 ft | 98 kts | 105° |
| 2026-05-04 04:59 | -3.77664 | -38.53140 | 91 ft | 22 kts | 105° |
| 2026-05-04 05:00 | -3.77694 | -38.53030 | 90 ft | 28 kts | 104° |
| 2026-05-04 05:00 | -3.77750 | -38.52808 | 93 ft | 36 kts | 104° |
| 2026-05-04 05:00 | -3.77863 | -38.52643 | 91 ft | 12 kts | 245° |
| 2026-05-04 05:01 | -3.77896 | -38.52733 | 92 ft | 14 kts | 246° |
| 2026-05-04 05:01 | -3.77897 | -38.52839 | 92 ft | 17 kts | 274° |
| 2026-05-04 05:01 | -3.77865 | -38.52952 | 92 ft | 17 kts | 288° |
| 2026-05-04 05:01 | -3.77838 | -38.53068 | 93 ft | 14 kts | 273° |
| 2026-05-04 05:02 | -3.77808 | -38.53173 | 94 ft | 18 kts | 287° |
| 2026-05-04 05:02 | -3.77778 | -38.53279 | 92 ft | 0 kts | 284° |
| 2026-05-04 05:02 | -3.77774 | -38.53294 | 91 ft | 5 kts | 284° |
| 2026-05-04 05:02 | -3.77763 | -38.53339 | 92 ft | 9 kts | 284° |
| 2026-05-04 05:03 | -3.77745 | -38.53412 | 91 ft | 13 kts | 284° |
| 2026-05-04 05:03 | -3.77720 | -38.53510 | 91 ft | 16 kts | 284° |
| 2026-05-04 05:04 | -3.77743 | -38.53855 | 93 ft | 1 kts | 239° |
| 2026-05-04 05:04 | -3.77762 | -38.53874 | 91 ft | 6 kts | 219° |
| 2026-05-04 05:04 | -3.77810 | -38.53911 | 93 ft | 10 kts | 220° |
| 2026-05-04 05:06 | -3.77834 | -38.53930 | 92 ft | 0 kts | 218° |